Chestnut Mound, TN

12:54 AM CST on January 30, 2015 (GMT -0600)
KTNBUFFA2 | Change Station
CLOSE
Current Station
Personal Weather Station
Location: Buffalo Valley, TN
Elevation: 564 ft
Nearby Weather Stations

Elev 564 ft 36.13 °N, 85.79 °W | Updated 10 seconds ago

Overcast
Overcast
37.8 °F
Feels Like 34 °F
N
5.4
Wind Variable Wind from North
Gusts 8.3 mph

Today
High -- | Low -- °F
--% Chance of Precip.
Yesterday
High -- | Low -- °F
Precip. -- in
6:46 AM 5:07 PM
Waxing Gibbous, 80% visible
Pressure 30.27 in
Visibility 10.0 miles
Clouds Few 2900 ft
Overcast 4100 ft
Windchill 34 °F
Dew Point 35 °F
Humidity 91%
Rainfall 0.00 in
Snow Depth Not available.
UV 0 out of 12
Pollen 2.20 out of 12
Air Quality Not available.
Flu Activity Not available.
METAR KSRB 300555Z AUTO 34006KT 10SM FEW029 OVC041 03/M01 A3027 RMK

More Conditions Fewer Conditions

Pressure 30.27 in
Visibility 10.0 miles
Clouds Few 2900 ft
Overcast 4100 ft
Windchill 34 °F
Dew Point 35 °F
Humidity 91%
Rainfall 0.00 in
Snow Depth Not available.
UV 0 out of 12
Pollen 2.20 out of 12
Air Quality Not available.
Flu Activity Not available.
METAR KSRB 300555Z AUTO 34006KT 10SM FEW029 OVC041 03/M01 A3027 RMK

More Conditions Fewer Conditions

10-Day Weather Forecast

Almanac

Astronomy

Jan. 30, 2015 Rise Set
Actual Time
Civil Twilight
Nautical Twilight
Astronomical Twilight
Moon
Length of Visible Light
Length of Day
Tomorrow will be .
, % of the Moon is Illuminated

Today's Extremes

State Highs State Lows

Community

WunderPhotos

Upload Photos

1,791,724 photos uploaded!

WunderBlogs® & News

Nearby

Air Quality

  Air Quality AQ Index Pollutant
Not available.

Snow Depth

Station Depth Elevation

Earthquake Activity

City Distance Mag. Time & Date
Minimum magnitude displayed is 2.5.

Coastal Water Temperatures

Place Temperature

Nearby Weather Stations